sensor_id;sensor_type;location;lat;lon;timestamp;P1;durP1;ratioP1;P2;durP2;ratioP2
7444;SDS011;3764;48.126;11.594;2022-09-09T00:02:00;2.55;;;1.95;;
7444;SDS011;3764;48.126;11.594;2022-09-09T00:04:31;3.42;;;2.30;;
7444;SDS011;3764;48.126;11.594;2022-09-09T00:07:01;2.97;;;1.75;;
7444;SDS011;3764;48.126;11.594;2022-09-09T00:09:35;4.10;;;1.90;;
7444;SDS011;3764;48.126;11.594;2022-09-09T00:12:10;2.97;;;2.05;;
7444;SDS011;3764;48.126;11.594;2022-09-09T00:14:42;2.95;;;1.88;;
7444;SDS011;3764;48.126;11.594;2022-09-09T00:17:17;3.53;;;2.17;;
7444;SDS011;3764;48.126;11.594;2022-09-09T00:19:58;3.25;;;2.00;;
7444;SDS011;3764;48.126;11.594;2022-09-09T00:22:29;2.13;;;1.92;;
7444;SDS011;3764;48.126;11.594;2022-09-09T00:25:01;3.50;;;2.22;;
7444;SDS011;3764;48.126;11.594;2022-09-09T00:27:39;2.97;;;1.90;;
7444;SDS011;3764;48.126;11.594;2022-09-09T00:30:17;2.42;;;1.73;;
7444;SDS011;3764;48.126;11.594;2022-09-09T00:32:48;3.17;;;1.73;;
7444;SDS011;3764;48.126;11.594;2022-09-09T00:35:17;3.60;;;2.05;;
7444;SDS011;3764;48.126;11.594;2022-09-09T00:37:50;2.20;;;1.83;;
7444;SDS011;3764;48.126;11.594;2022-09-09T00:40:22;2.33;;;1.80;;
7444;SDS011;3764;48.126;11.594;2022-09-09T00:43:00;2.50;;;2.30;;
7444;SDS011;3764;48.126;11.594;2022-09-09T00:45:46;3.03;;;2.05;;
7444;SDS011;3764;48.126;11.594;2022-09-09T00:48:27;3.28;;;1.75;;
7444;SDS011;3764;48.126;11.594;2022-09-09T00:51:02;4.68;;;2.00;;
7444;SDS011;3764;48.126;11.594;2022-09-09T00:53:39;2.55;;;1.83;;
7444;SDS011;3764;48.126;11.594;2022-09-09T00:56:23;5.57;;;2.90;;
7444;SDS011;3764;48.126;11.594;2022-09-09T00:58:55;2.90;;;2.10;;
7444;SDS011;3764;48.126;11.594;2022-09-09T01:01:32;2.45;;;2.00;;
7444;SDS011;3764;48.126;11.594;2022-09-09T01:04:00;2.10;;;1.90;;
7444;SDS011;3764;48.126;11.594;2022-09-09T01:06:33;2.05;;;1.85;;
7444;SDS011;3764;48.126;11.594;2022-09-09T01:09:10;4.30;;;2.03;;
7444;SDS011;3764;48.126;11.594;2022-09-09T01:11:45;2.70;;;2.03;;
7444;SDS011;3764;48.126;11.594;2022-09-09T01:14:24;2.40;;;1.80;;
7444;SDS011;3764;48.126;11.594;2022-09-09T01:17:01;3.47;;;1.75;;
7444;SDS011;3764;48.126;11.594;2022-09-09T01:19:34;2.58;;;2.00;;
7444;SDS011;3764;48.126;11.594;2022-09-09T01:22:09;2.65;;;2.13;;
7444;SDS011;3764;48.126;11.594;2022-09-09T01:25:01;2.40;;;1.73;;
7444;SDS011;3764;48.126;11.594;2022-09-09T01:27:54;2.67;;;1.83;;
7444;SDS011;3764;48.126;11.594;2022-09-09T01:30:24;2.65;;;1.75;;
7444;SDS011;3764;48.126;11.594;2022-09-09T01:32:53;2.70;;;1.50;;
7444;SDS011;3764;48.126;11.594;2022-09-09T01:35:27;2.35;;;1.73;;
7444;SDS011;3764;48.126;11.594;2022-09-09T01:38:01;2.20;;;2.00;;
7444;SDS011;3764;48.126;11.594;2022-09-09T01:40:28;2.85;;;1.77;;
7444;SDS011;3764;48.126;11.594;2022-09-09T01:42:56;2.72;;;1.90;;
7444;SDS011;3764;48.126;11.594;2022-09-09T01:45:24;4.68;;;1.75;;
7444;SDS011;3764;48.126;11.594;2022-09-09T01:47:51;2.03;;;1.50;;
7444;SDS011;3764;48.126;11.594;2022-09-09T01:50:19;3.15;;;1.92;;
7444;SDS011;3764;48.126;11.594;2022-09-09T01:52:48;2.67;;;2.10;;
7444;SDS011;3764;48.126;11.594;2022-09-09T01:55:18;2.13;;;1.50;;
7444;SDS011;3764;48.126;11.594;2022-09-09T01:57:58;2.35;;;2.03;;
7444;SDS011;3764;48.126;11.594;2022-09-09T02:00:35;3.10;;;2.47;;
7444;SDS011;3764;48.126;11.594;2022-09-09T02:03:08;2.65;;;1.95;;
7444;SDS011;3764;48.126;11.594;2022-09-09T02:05:44;2.05;;;1.70;;
7444;SDS011;3764;48.126;11.594;2022-09-09T02:08:17;2.67;;;1.60;;
7444;SDS011;3764;48.126;11.594;2022-09-09T02:10:48;2.65;;;1.70;;
7444;SDS011;3764;48.126;11.594;2022-09-09T02:13:21;1.95;;;1.70;;
7444;SDS011;3764;48.126;11.594;2022-09-09T02:15:50;3.00;;;2.00;;
7444;SDS011;3764;48.126;11.594;2022-09-09T02:18:22;2.10;;;1.90;;
7444;SDS011;3764;48.126;11.594;2022-09-09T02:20:53;3.22;;;1.83;;
7444;SDS011;3764;48.126;11.594;2022-09-09T02:23:22;2.55;;;1.67;;
7444;SDS011;3764;48.126;11.594;2022-09-09T02:25:50;2.75;;;1.73;;
7444;SDS011;3764;48.126;11.594;2022-09-09T02:28:21;2.72;;;2.00;;
7444;SDS011;3764;48.126;11.594;2022-09-09T02:30:52;3.95;;;1.50;;
7444;SDS011;3764;48.126;11.594;2022-09-09T02:33:21;2.45;;;1.92;;
7444;SDS011;3764;48.126;11.594;2022-09-09T02:35:51;1.75;;;1.60;;
7444;SDS011;3764;48.126;11.594;2022-09-09T02:38:21;4.65;;;2.00;;
7444;SDS011;3764;48.126;11.594;2022-09-09T02:40:52;3.13;;;1.70;;
7444;SDS011;3764;48.126;11.594;2022-09-09T02:43:19;3.75;;;2.47;;
7444;SDS011;3764;48.126;11.594;2022-09-09T02:45:51;2.60;;;2.00;;
7444;SDS011;3764;48.126;11.594;2022-09-09T02:48:36;2.70;;;1.95;;
7444;SDS011;3764;48.126;11.594;2022-09-09T02:51:14;2.67;;;1.80;;
7444;SDS011;3764;48.126;11.594;2022-09-09T02:53:47;3.28;;;1.80;;
7444;SDS011;3764;48.126;11.594;2022-09-09T02:56:23;3.45;;;1.90;;
7444;SDS011;3764;48.126;11.594;2022-09-09T02:58:56;3.55;;;1.95;;
7444;SDS011;3764;48.126;11.594;2022-09-09T03:01:23;2.50;;;2.10;;
7444;SDS011;3764;48.126;11.594;2022-09-09T03:03:50;1.83;;;1.60;;
7444;SDS011;3764;48.126;11.594;2022-09-09T03:06:17;4.13;;;2.00;;
7444;SDS011;3764;48.126;11.594;2022-09-09T03:08:44;2.35;;;1.45;;
7444;SDS011;3764;48.126;11.594;2022-09-09T03:11:11;3.05;;;1.65;;
7444;SDS011;3764;48.126;11.594;2022-09-09T03:13:39;3.58;;;2.00;;
7444;SDS011;3764;48.126;11.594;2022-09-09T03:16:07;2.83;;;2.40;;
7444;SDS011;3764;48.126;11.594;2022-09-09T03:18:34;3.30;;;1.70;;
7444;SDS011;3764;48.126;11.594;2022-09-09T03:21:01;3.40;;;1.60;;
7444;SDS011;3764;48.126;11.594;2022-09-09T03:23:28;1.83;;;1.65;;
7444;SDS011;3764;48.126;11.594;2022-09-09T03:25:55;5.00;;;1.95;;
7444;SDS011;3764;48.126;11.594;2022-09-09T03:28:23;2.47;;;1.40;;
7444;SDS011;3764;48.126;11.594;2022-09-09T03:30:58;2.42;;;1.77;;
7444;SDS011;3764;48.126;11.594;2022-09-09T03:33:27;3.70;;;1.88;;
7444;SDS011;3764;48.126;11.594;2022-09-09T03:35:54;2.35;;;1.50;;
7444;SDS011;3764;48.126;11.594;2022-09-09T03:38:22;2.17;;;1.67;;
7444;SDS011;3764;48.126;11.594;2022-09-09T03:40:50;2.25;;;1.70;;
7444;SDS011;3764;48.126;11.594;2022-09-09T03:43:20;1.80;;;1.55;;
7444;SDS011;3764;48.126;11.594;2022-09-09T03:45:47;2.30;;;1.65;;
7444;SDS011;3764;48.126;11.594;2022-09-09T03:48:15;2.22;;;1.73;;
7444;SDS011;3764;48.126;11.594;2022-09-09T03:50:47;2.03;;;1.52;;
7444;SDS011;3764;48.126;11.594;2022-09-09T03:53:16;3.20;;;1.73;;
7444;SDS011;3764;48.126;11.594;2022-09-09T03:55:44;2.50;;;1.65;;
7444;SDS011;3764;48.126;11.594;2022-09-09T03:58:11;3.05;;;1.83;;
7444;SDS011;3764;48.126;11.594;2022-09-09T04:00:39;3.38;;;2.38;;
7444;SDS011;3764;48.126;11.594;2022-09-09T04:03:07;2.47;;;1.83;;
7444;SDS011;3764;48.126;11.594;2022-09-09T04:05:34;6.03;;;1.95;;
7444;SDS011;3764;48.126;11.594;2022-09-09T04:08:06;4.32;;;1.85;;
7444;SDS011;3764;48.126;11.594;2022-09-09T04:10:33;4.35;;;1.95;;
7444;SDS011;3764;48.126;11.594;2022-09-09T04:13:01;4.38;;;2.10;;
7444;SDS011;3764;48.126;11.594;2022-09-09T04:15:28;2.30;;;1.40;;
7444;SDS011;3764;48.126;11.594;2022-09-09T04:17:56;4.57;;;1.70;;
7444;SDS011;3764;48.126;11.594;2022-09-09T04:20:23;5.22;;;2.22;;
7444;SDS011;3764;48.126;11.594;2022-09-09T04:22:50;3.47;;;2.03;;
7444;SDS011;3764;48.126;11.594;2022-09-09T04:25:18;3.00;;;1.90;;
7444;SDS011;3764;48.126;11.594;2022-09-09T04:27:45;3.65;;;1.85;;
7444;SDS011;3764;48.126;11.594;2022-09-09T04:30:12;1.95;;;1.45;;
7444;SDS011;3764;48.126;11.594;2022-09-09T04:32:39;3.70;;;2.05;;
7444;SDS011;3764;48.126;11.594;2022-09-09T04:35:07;4.80;;;1.92;;
7444;SDS011;3764;48.126;11.594;2022-09-09T04:37:34;3.20;;;1.90;;
7444;SDS011;3764;48.126;11.594;2022-09-09T04:40:01;4.88;;;1.85;;
7444;SDS011;3764;48.126;11.594;2022-09-09T04:42:30;3.10;;;1.83;;
7444;SDS011;3764;48.126;11.594;2022-09-09T04:45:00;2.10;;;1.55;;
7444;SDS011;3764;48.126;11.594;2022-09-09T04:47:27;2.53;;;1.90;;
7444;SDS011;3764;48.126;11.594;2022-09-09T04:49:55;3.88;;;2.28;;
7444;SDS011;3764;48.126;11.594;2022-09-09T04:52:22;3.47;;;1.75;;
7444;SDS011;3764;48.126;11.594;2022-09-09T04:54:49;2.45;;;2.25;;
7444;SDS011;3764;48.126;11.594;2022-09-09T04:57:16;4.13;;;1.70;;
7444;SDS011;3764;48.126;11.594;2022-09-09T04:59:44;6.82;;;1.60;;
7444;SDS011;3764;48.126;11.594;2022-09-09T05:02:12;3.05;;;1.55;;
7444;SDS011;3764;48.126;11.594;2022-09-09T05:04:39;2.35;;;1.85;;
7444;SDS011;3764;48.126;11.594;2022-09-09T05:07:06;2.85;;;2.30;;
7444;SDS011;3764;48.126;11.594;2022-09-09T05:09:33;3.88;;;2.50;;
7444;SDS011;3764;48.126;11.594;2022-09-09T05:12:00;6.72;;;2.22;;
7444;SDS011;3764;48.126;11.594;2022-09-09T05:14:27;2.95;;;2.15;;
7444;SDS011;3764;48.126;11.594;2022-09-09T05:16:56;2.75;;;1.95;;
7444;SDS011;3764;48.126;11.594;2022-09-09T05:19:24;3.95;;;2.40;;
7444;SDS011;3764;48.126;11.594;2022-09-09T05:21:51;4.93;;;3.08;;
7444;SDS011;3764;48.126;11.594;2022-09-09T05:24:18;2.20;;;2.00;;
7444;SDS011;3764;48.126;11.594;2022-09-09T05:26:45;3.80;;;1.80;;
7444;SDS011;3764;48.126;11.594;2022-09-09T05:29:13;2.35;;;1.63;;
7444;SDS011;3764;48.126;11.594;2022-09-09T05:31:44;3.17;;;2.63;;
7444;SDS011;3764;48.126;11.594;2022-09-09T05:34:13;3.40;;;2.22;;
7444;SDS011;3764;48.126;11.594;2022-09-09T05:36:40;4.00;;;2.22;;
7444;SDS011;3764;48.126;11.594;2022-09-09T05:39:07;4.07;;;1.90;;
7444;SDS011;3764;48.126;11.594;2022-09-09T05:41:37;3.65;;;2.05;;
7444;SDS011;3764;48.126;11.594;2022-09-09T05:44:05;3.00;;;2.00;;
7444;SDS011;3764;48.126;11.594;2022-09-09T05:46:32;7.00;;;2.30;;
7444;SDS011;3764;48.126;11.594;2022-09-09T05:48:59;2.30;;;2.10;;
7444;SDS011;3764;48.126;11.594;2022-09-09T05:51:27;7.45;;;1.95;;
7444;SDS011;3764;48.126;11.594;2022-09-09T05:53:56;2.08;;;1.88;;
7444;SDS011;3764;48.126;11.594;2022-09-09T05:56:24;2.35;;;1.85;;
7444;SDS011;3764;48.126;11.594;2022-09-09T05:58:53;4.07;;;1.80;;
7444;SDS011;3764;48.126;11.594;2022-09-09T06:01:21;11.35;;;2.38;;
7444;SDS011;3764;48.126;11.594;2022-09-09T06:03:50;6.65;;;2.25;;
7444;SDS011;3764;48.126;11.594;2022-09-09T06:06:18;6.68;;;1.98;;
7444;SDS011;3764;48.126;11.594;2022-09-09T06:08:50;3.90;;;2.10;;
7444;SDS011;3764;48.126;11.594;2022-09-09T06:11:18;2.33;;;1.65;;
7444;SDS011;3764;48.126;11.594;2022-09-09T06:13:47;2.65;;;1.83;;
7444;SDS011;3764;48.126;11.594;2022-09-09T06:16:17;3.58;;;2.05;;
7444;SDS011;3764;48.126;11.594;2022-09-09T06:18:45;4.10;;;1.95;;
7444;SDS011;3764;48.126;11.594;2022-09-09T06:21:16;2.13;;;1.63;;
7444;SDS011;3764;48.126;11.594;2022-09-09T06:23:45;1.95;;;1.75;;
7444;SDS011;3764;48.126;11.594;2022-09-09T06:26:14;3.75;;;2.00;;
7444;SDS011;3764;48.126;11.594;2022-09-09T06:28:43;3.42;;;1.60;;
7444;SDS011;3764;48.126;11.594;2022-09-09T06:31:12;6.15;;;1.80;;
7444;SDS011;3764;48.126;11.594;2022-09-09T06:33:42;3.05;;;2.10;;
7444;SDS011;3764;48.126;11.594;2022-09-09T06:36:11;3.75;;;1.70;;
7444;SDS011;3764;48.126;11.594;2022-09-09T06:38:39;2.75;;;1.73;;
7444;SDS011;3764;48.126;11.594;2022-09-09T06:41:10;2.67;;;1.75;;
7444;SDS011;3764;48.126;11.594;2022-09-09T06:43:40;3.22;;;1.70;;
7444;SDS011;3764;48.126;11.594;2022-09-09T06:46:09;2.00;;;1.60;;
7444;SDS011;3764;48.126;11.594;2022-09-09T06:48:38;2.25;;;1.70;;
7444;SDS011;3764;48.126;11.594;2022-09-09T06:51:07;3.15;;;1.30;;
7444;SDS011;3764;48.126;11.594;2022-09-09T06:53:36;2.47;;;1.80;;
7444;SDS011;3764;48.126;11.594;2022-09-09T06:56:17;2.78;;;1.60;;
7444;SDS011;3764;48.126;11.594;2022-09-09T06:58:49;4.15;;;2.10;;
7444;SDS011;3764;48.126;11.594;2022-09-09T07:01:18;3.35;;;2.45;;
7444;SDS011;3764;48.126;11.594;2022-09-09T07:03:49;2.70;;;1.50;;
7444;SDS011;3764;48.126;11.594;2022-09-09T07:06:17;7.40;;;1.60;;
7444;SDS011;3764;48.126;11.594;2022-09-09T07:08:48;2.40;;;1.70;;
7444;SDS011;3764;48.126;11.594;2022-09-09T07:11:16;2.60;;;1.50;;
7444;SDS011;3764;48.126;11.594;2022-09-09T07:13:44;2.20;;;1.40;;
7444;SDS011;3764;48.126;11.594;2022-09-09T07:16:13;3.75;;;1.45;;
7444;SDS011;3764;48.126;11.594;2022-09-09T07:18:41;2.80;;;1.40;;
7444;SDS011;3764;48.126;11.594;2022-09-09T07:21:09;2.65;;;1.42;;
7444;SDS011;3764;48.126;11.594;2022-09-09T07:23:37;2.53;;;1.50;;
7444;SDS011;3764;48.126;11.594;2022-09-09T07:26:07;2.58;;;1.40;;
7444;SDS011;3764;48.126;11.594;2022-09-09T07:28:35;2.65;;;1.30;;
7444;SDS011;3764;48.126;11.594;2022-09-09T07:31:03;2.45;;;2.08;;
7444;SDS011;3764;48.126;11.594;2022-09-09T07:33:33;5.30;;;2.58;;
7444;SDS011;3764;48.126;11.594;2022-09-09T07:36:04;2.80;;;1.90;;
7444;SDS011;3764;48.126;11.594;2022-09-09T07:38:37;3.00;;;1.90;;
7444;SDS011;3764;48.126;11.594;2022-09-09T07:41:06;2.40;;;1.50;;
7444;SDS011;3764;48.126;11.594;2022-09-09T07:43:37;3.38;;;1.60;;
7444;SDS011;3764;48.126;11.594;2022-09-09T07:46:05;2.90;;;1.70;;
7444;SDS011;3764;48.126;11.594;2022-09-09T07:48:34;2.45;;;1.80;;
7444;SDS011;3764;48.126;11.594;2022-09-09T07:51:05;4.72;;;1.83;;
7444;SDS011;3764;48.126;11.594;2022-09-09T07:53:33;2.25;;;1.50;;
7444;SDS011;3764;48.126;11.594;2022-09-09T07:56:05;2.30;;;1.70;;
7444;SDS011;3764;48.126;11.594;2022-09-09T07:58:34;5.00;;;1.85;;
7444;SDS011;3764;48.126;11.594;2022-09-09T08:01:06;1.70;;;1.50;;
7444;SDS011;3764;48.126;11.594;2022-09-09T08:03:36;3.10;;;1.40;;
7444;SDS011;3764;48.126;11.594;2022-09-09T08:06:03;2.25;;;1.40;;
7444;SDS011;3764;48.126;11.594;2022-09-09T08:08:32;2.83;;;1.90;;
7444;SDS011;3764;48.126;11.594;2022-09-09T08:11:06;4.00;;;1.98;;
7444;SDS011;3764;48.126;11.594;2022-09-09T08:13:36;3.00;;;1.65;;
7444;SDS011;3764;48.126;11.594;2022-09-09T08:16:05;2.63;;;1.55;;
7444;SDS011;3764;48.126;11.594;2022-09-09T08:18:33;3.15;;;1.60;;
7444;SDS011;3764;48.126;11.594;2022-09-09T08:21:08;1.77;;;1.55;;
7444;SDS011;3764;48.126;11.594;2022-09-09T08:23:38;2.47;;;1.40;;
7444;SDS011;3764;48.126;11.594;2022-09-09T08:26:06;6.85;;;1.98;;
7444;SDS011;3764;48.126;11.594;2022-09-09T08:28:36;4.00;;;1.50;;
7444;SDS011;3764;48.126;11.594;2022-09-09T08:31:09;2.25;;;1.58;;
7444;SDS011;3764;48.126;11.594;2022-09-09T08:33:37;2.63;;;1.80;;
7444;SDS011;3764;48.126;11.594;2022-09-09T08:36:05;3.40;;;1.70;;
7444;SDS011;3764;48.126;11.594;2022-09-09T08:38:35;3.17;;;1.80;;
7444;SDS011;3764;48.126;11.594;2022-09-09T08:46:33;2.92;;;1.80;;
7444;SDS011;3764;48.126;11.594;2022-09-09T08:49:14;2.05;;;1.85;;
7444;SDS011;3764;48.126;11.594;2022-09-09T08:52:02;4.15;;;2.00;;
7444;SDS011;3764;48.126;11.594;2022-09-09T08:54:35;5.78;;;2.70;;
7444;SDS011;3764;48.126;11.594;2022-09-09T08:57:03;4.53;;;1.75;;
7444;SDS011;3764;48.126;11.594;2022-09-09T08:59:37;5.95;;;2.17;;
7444;SDS011;3764;48.126;11.594;2022-09-09T09:02:07;2.08;;;1.85;;
7444;SDS011;3764;48.126;11.594;2022-09-09T09:04:50;2.60;;;2.30;;
7444;SDS011;3764;48.126;11.594;2022-09-09T09:07:33;3.30;;;2.15;;
7444;SDS011;3764;48.126;11.594;2022-09-09T09:10:15;3.28;;;2.10;;
7444;SDS011;3764;48.126;11.594;2022-09-09T09:12:55;4.57;;;2.47;;
7444;SDS011;3764;48.126;11.594;2022-09-09T09:15:24;5.35;;;2.78;;
7444;SDS011;3764;48.126;11.594;2022-09-09T09:17:53;6.88;;;2.15;;
7444;SDS011;3764;48.126;11.594;2022-09-09T09:20:20;3.50;;;2.20;;
7444;SDS011;3764;48.126;11.594;2022-09-09T09:22:54;3.50;;;2.80;;
7444;SDS011;3764;48.126;11.594;2022-09-09T09:25:27;3.95;;;2.60;;
7444;SDS011;3764;48.126;11.594;2022-09-09T09:27:58;4.25;;;2.50;;
7444;SDS011;3764;48.126;11.594;2022-09-09T09:30:31;4.63;;;2.13;;
7444;SDS011;3764;48.126;11.594;2022-09-09T09:33:05;2.85;;;1.77;;
7444;SDS011;3764;48.126;11.594;2022-09-09T09:35:35;2.90;;;1.98;;
7444;SDS011;3764;48.126;11.594;2022-09-09T09:38:08;4.40;;;1.70;;
7444;SDS011;3764;48.126;11.594;2022-09-09T09:40:47;3.25;;;1.95;;
7444;SDS011;3764;48.126;11.594;2022-09-09T09:43:18;7.72;;;2.65;;
7444;SDS011;3764;48.126;11.594;2022-09-09T09:45:50;5.75;;;1.88;;
7444;SDS011;3764;48.126;11.594;2022-09-09T09:48:17;3.35;;;2.20;;
7444;SDS011;3764;48.126;11.594;2022-09-09T09:50:47;5.28;;;1.90;;
7444;SDS011;3764;48.126;11.594;2022-09-09T09:53:24;3.08;;;1.80;;
7444;SDS011;3764;48.126;11.594;2022-09-09T09:55:54;3.15;;;2.25;;
7444;SDS011;3764;48.126;11.594;2022-09-09T09:58:24;3.03;;;2.10;;
7444;SDS011;3764;48.126;11.594;2022-09-09T10:00:52;2.60;;;2.20;;
7444;SDS011;3764;48.126;11.594;2022-09-09T10:03:24;2.95;;;1.70;;
7444;SDS011;3764;48.126;11.594;2022-09-09T10:05:54;2.45;;;1.98;;
7444;SDS011;3764;48.126;11.594;2022-09-09T10:08:24;1.85;;;1.67;;
7444;SDS011;3764;48.126;11.594;2022-09-09T10:10:59;1.70;;;1.40;;
7444;SDS011;3764;48.126;11.594;2022-09-09T10:13:39;1.70;;;1.42;;
7444;SDS011;3764;48.126;11.594;2022-09-09T10:16:19;3.85;;;1.95;;
7444;SDS011;3764;48.126;11.594;2022-09-09T10:19:01;2.40;;;1.90;;
7444;SDS011;3764;48.126;11.594;2022-09-09T10:21:38;5.00;;;1.63;;
7444;SDS011;3764;48.126;11.594;2022-09-09T10:27:23;2.15;;;1.55;;
7444;SDS011;3764;48.126;11.594;2022-09-09T10:29:59;4.53;;;1.50;;
7444;SDS011;3764;48.126;11.594;2022-09-09T10:32:41;1.92;;;1.30;;
7444;SDS011;3764;48.126;11.594;2022-09-09T10:35:17;2.65;;;1.70;;
7444;SDS011;3764;48.126;11.594;2022-09-09T10:37:55;3.30;;;1.48;;
7444;SDS011;3764;48.126;11.594;2022-09-09T10:40:39;3.70;;;1.65;;
7444;SDS011;3764;48.126;11.594;2022-09-09T10:43:20;2.20;;;1.67;;
7444;SDS011;3764;48.126;11.594;2022-09-09T10:46:01;1.70;;;1.50;;
7444;SDS011;3764;48.126;11.594;2022-09-09T10:48:38;2.40;;;1.35;;
7444;SDS011;3764;48.126;11.594;2022-09-09T10:51:26;4.28;;;1.50;;
7444;SDS011;3764;48.126;11.594;2022-09-09T10:54:06;1.73;;;1.38;;
7444;SDS011;3764;48.126;11.594;2022-09-09T10:56:55;1.92;;;1.40;;
7444;SDS011;3764;48.126;11.594;2022-09-09T10:59:27;1.80;;;1.20;;
7444;SDS011;3764;48.126;11.594;2022-09-09T11:01:58;2.00;;;1.70;;
7444;SDS011;3764;48.126;11.594;2022-09-09T11:04:34;3.47;;;2.15;;
7444;SDS011;3764;48.126;11.594;2022-09-09T11:07:07;3.75;;;1.90;;
7444;SDS011;3764;48.126;11.594;2022-09-09T11:09:39;2.38;;;1.30;;
7444;SDS011;3764;48.126;11.594;2022-09-09T11:12:15;2.05;;;1.13;;
7444;SDS011;3764;48.126;11.594;2022-09-09T11:14:45;1.40;;;1.10;;
7444;SDS011;3764;48.126;11.594;2022-09-09T11:17:18;2.00;;;1.23;;
7444;SDS011;3764;48.126;11.594;2022-09-09T11:19:47;2.30;;;1.27;;
7444;SDS011;3764;48.126;11.594;2022-09-09T11:22:15;4.38;;;1.30;;
7444;SDS011;3764;48.126;11.594;2022-09-09T11:24:51;1.85;;;1.33;;
7444;SDS011;3764;48.126;11.594;2022-09-09T11:27:27;2.03;;;1.50;;
7444;SDS011;3764;48.126;11.594;2022-09-09T11:30:05;3.38;;;1.10;;
7444;SDS011;3764;48.126;11.594;2022-09-09T11:35:46;3.80;;;0.93;;
7444;SDS011;3764;48.126;11.594;2022-09-09T11:38:28;2.40;;;1.33;;
7444;SDS011;3764;48.126;11.594;2022-09-09T11:41:00;3.50;;;1.30;;
7444;SDS011;3764;48.126;11.594;2022-09-09T11:43:33;1.77;;;1.15;;
7444;SDS011;3764;48.126;11.594;2022-09-09T11:46:06;2.58;;;0.90;;
7444;SDS011;3764;48.126;11.594;2022-09-09T11:48:35;1.35;;;0.82;;
7444;SDS011;3764;48.126;11.594;2022-09-09T11:51:05;1.85;;;0.90;;
7444;SDS011;3764;48.126;11.594;2022-09-09T11:53:34;3.10;;;1.08;;
7444;SDS011;3764;48.126;11.594;2022-09-09T11:56:03;1.88;;;1.00;;
7444;SDS011;3764;48.126;11.594;2022-09-09T11:58:40;1.73;;;1.17;;
7444;SDS011;3764;48.126;11.594;2022-09-09T12:01:25;1.80;;;1.10;;
7444;SDS011;3764;48.126;11.594;2022-09-09T12:06:56;2.25;;;0.95;;
7444;SDS011;3764;48.126;11.594;2022-09-09T12:09:30;5.15;;;0.90;;
7444;SDS011;3764;48.126;11.594;2022-09-09T12:12:24;1.95;;;1.00;;
7444;SDS011;3764;48.126;11.594;2022-09-09T12:17:47;1.25;;;0.80;;
7444;SDS011;3764;48.126;11.594;2022-09-09T12:20:17;1.42;;;1.00;;
7444;SDS011;3764;48.126;11.594;2022-09-09T12:22:50;2.78;;;1.20;;
7444;SDS011;3764;48.126;11.594;2022-09-09T12:25:35;2.15;;;1.35;;
7444;SDS011;3764;48.126;11.594;2022-09-09T12:28:15;1.90;;;1.02;;
7444;SDS011;3764;48.126;11.594;2022-09-09T12:30:47;1.92;;;1.00;;
7444;SDS011;3764;48.126;11.594;2022-09-09T12:33:21;1.40;;;1.10;;
7444;SDS011;3764;48.126;11.594;2022-09-09T12:35:51;2.10;;;1.10;;
7444;SDS011;3764;48.126;11.594;2022-09-09T12:38:22;1.40;;;0.80;;
7444;SDS011;3764;48.126;11.594;2022-09-09T12:40:57;2.60;;;1.20;;
7444;SDS011;3764;48.126;11.594;2022-09-09T12:43:26;2.20;;;1.05;;
7444;SDS011;3764;48.126;11.594;2022-09-09T12:45:56;2.67;;;0.90;;
7444;SDS011;3764;48.126;11.594;2022-09-09T12:48:31;2.60;;;1.15;;
7444;SDS011;3764;48.126;11.594;2022-09-09T12:51:01;2.08;;;0.98;;
7444;SDS011;3764;48.126;11.594;2022-09-09T12:53:31;1.83;;;0.90;;
7444;SDS011;3764;48.126;11.594;2022-09-09T12:56:02;1.80;;;1.10;;
7444;SDS011;3764;48.126;11.594;2022-09-09T12:58:32;1.30;;;0.93;;
7444;SDS011;3764;48.126;11.594;2022-09-09T13:01:02;1.90;;;1.15;;
7444;SDS011;3764;48.126;11.594;2022-09-09T13:03:30;1.92;;;1.05;;
7444;SDS011;3764;48.126;11.594;2022-09-09T13:05:59;3.38;;;1.10;;
7444;SDS011;3764;48.126;11.594;2022-09-09T13:08:37;1.77;;;1.15;;
7444;SDS011;3764;48.126;11.594;2022-09-09T13:11:06;2.50;;;1.15;;
7444;SDS011;3764;48.126;11.594;2022-09-09T13:13:37;2.60;;;1.00;;
7444;SDS011;3764;48.126;11.594;2022-09-09T13:16:21;2.22;;;1.17;;
7444;SDS011;3764;48.126;11.594;2022-09-09T13:18:51;2.50;;;1.13;;
7444;SDS011;3764;48.126;11.594;2022-09-09T13:21:30;1.90;;;1.00;;
7444;SDS011;3764;48.126;11.594;2022-09-09T13:23:59;1.40;;;0.98;;
7444;SDS011;3764;48.126;11.594;2022-09-09T13:26:28;1.73;;;1.10;;
7444;SDS011;3764;48.126;11.594;2022-09-09T13:28:55;1.67;;;1.10;;
7444;SDS011;3764;48.126;11.594;2022-09-09T13:31:43;3.22;;;1.80;;
7444;SDS011;3764;48.126;11.594;2022-09-09T13:34:11;1.23;;;0.73;;
7444;SDS011;3764;48.126;11.594;2022-09-09T13:36:39;1.73;;;0.90;;
7444;SDS011;3764;48.126;11.594;2022-09-09T13:39:13;2.58;;;0.85;;
7444;SDS011;3764;48.126;11.594;2022-09-09T13:41:44;1.38;;;0.95;;
7444;SDS011;3764;48.126;11.594;2022-09-09T13:44:17;1.67;;;1.20;;
7444;SDS011;3764;48.126;11.594;2022-09-09T13:47:00;1.83;;;1.00;;
7444;SDS011;3764;48.126;11.594;2022-09-09T13:49:29;2.08;;;1.20;;
7444;SDS011;3764;48.126;11.594;2022-09-09T13:52:05;1.85;;;1.02;;
7444;SDS011;3764;48.126;11.594;2022-09-09T13:54:36;1.45;;;0.93;;
7444;SDS011;3764;48.126;11.594;2022-09-09T13:57:04;1.33;;;0.90;;
7444;SDS011;3764;48.126;11.594;2022-09-09T13:59:32;1.85;;;0.90;;
7444;SDS011;3764;48.126;11.594;2022-09-09T14:02:00;1.60;;;1.17;;
7444;SDS011;3764;48.126;11.594;2022-09-09T14:04:27;1.55;;;1.00;;
7444;SDS011;3764;48.126;11.594;2022-09-09T14:06:55;1.50;;;0.95;;
7444;SDS011;3764;48.126;11.594;2022-09-09T14:09:23;2.30;;;1.10;;
7444;SDS011;3764;48.126;11.594;2022-09-09T14:11:50;1.30;;;1.08;;
7444;SDS011;3764;48.126;11.594;2022-09-09T14:14:17;2.00;;;1.10;;
7444;SDS011;3764;48.126;11.594;2022-09-09T14:16:45;3.45;;;1.20;;
7444;SDS011;3764;48.126;11.594;2022-09-09T14:19:13;2.10;;;1.10;;
7444;SDS011;3764;48.126;11.594;2022-09-09T14:21:40;1.30;;;0.80;;
7444;SDS011;3764;48.126;11.594;2022-09-09T14:24:07;1.30;;;0.80;;
7444;SDS011;3764;48.126;11.594;2022-09-09T14:26:35;2.05;;;0.90;;
7444;SDS011;3764;48.126;11.594;2022-09-09T14:29:02;1.50;;;0.98;;
7444;SDS011;3764;48.126;11.594;2022-09-09T14:31:29;1.30;;;0.80;;
7444;SDS011;3764;48.126;11.594;2022-09-09T14:33:56;3.05;;;1.30;;
7444;SDS011;3764;48.126;11.594;2022-09-09T14:36:25;1.55;;;1.10;;
7444;SDS011;3764;48.126;11.594;2022-09-09T14:38:52;2.13;;;0.98;;
7444;SDS011;3764;48.126;11.594;2022-09-09T14:41:19;1.10;;;0.77;;
7444;SDS011;3764;48.126;11.594;2022-09-09T14:43:47;1.73;;;1.08;;
7444;SDS011;3764;48.126;11.594;2022-09-09T14:46:15;2.30;;;0.88;;
7444;SDS011;3764;48.126;11.594;2022-09-09T14:48:44;3.22;;;0.95;;
7444;SDS011;3764;48.126;11.594;2022-09-09T14:51:14;1.83;;;1.20;;
7444;SDS011;3764;48.126;11.594;2022-09-09T14:53:46;1.48;;;1.30;;
7444;SDS011;3764;48.126;11.594;2022-09-09T14:56:14;1.45;;;0.77;;
7444;SDS011;3764;48.126;11.594;2022-09-09T14:58:42;2.45;;;0.90;;
7444;SDS011;3764;48.126;11.594;2022-09-09T15:01:10;2.40;;;0.95;;
7444;SDS011;3764;48.126;11.594;2022-09-09T15:03:39;4.80;;;1.23;;
7444;SDS011;3764;48.126;11.594;2022-09-09T15:06:08;6.45;;;1.73;;
7444;SDS011;3764;48.126;11.594;2022-09-09T15:08:39;4.75;;;1.48;;
7444;SDS011;3764;48.126;11.594;2022-09-09T15:11:10;3.55;;;1.23;;
7444;SDS011;3764;48.126;11.594;2022-09-09T15:13:38;3.47;;;1.20;;
7444;SDS011;3764;48.126;11.594;2022-09-09T15:16:08;1.48;;;1.00;;
7444;SDS011;3764;48.126;11.594;2022-09-09T15:18:37;2.60;;;1.10;;
7444;SDS011;3764;48.126;11.594;2022-09-09T15:21:08;3.30;;;1.30;;
7444;SDS011;3764;48.126;11.594;2022-09-09T15:23:36;2.15;;;1.00;;
7444;SDS011;3764;48.126;11.594;2022-09-09T15:26:04;4.95;;;0.88;;
7444;SDS011;3764;48.126;11.594;2022-09-09T15:28:34;2.20;;;1.40;;
7444;SDS011;3764;48.126;11.594;2022-09-09T15:31:04;4.05;;;1.33;;
7444;SDS011;3764;48.126;11.594;2022-09-09T15:33:33;2.13;;;1.15;;
7444;SDS011;3764;48.126;11.594;2022-09-09T15:36:12;1.95;;;1.00;;
7444;SDS011;3764;48.126;11.594;2022-09-09T15:38:40;1.95;;;1.05;;
7444;SDS011;3764;48.126;11.594;2022-09-09T15:41:07;1.85;;;1.27;;
7444;SDS011;3764;48.126;11.594;2022-09-09T15:43:36;1.48;;;0.90;;